Nolan, Texas
Current Conditions -  °F | °C
As of 10:15 PM on Thursday 27 Nov 2014 (Local Time) from KSWW Reporting Station
Clear Clear  
Wind Chill: 50°   Ceiling: Unl
Heat Index: 50°   Visibility: 10mi
Dew Point: 32°   Wind: 18mph
Humidity: 51%   Direction: 160°SSE
Pressure: 30.32"   Gusts: 26mph
Location:  32.27°N, 100.24°W
Report Text: KSWW 280415Z AUTO 16016G23KT 10SM CLR 10/00 A3032 RMK AO2 T01000002
Loading
Personal Weather Stations






























Interactive Weather Map New forecast layout! Learn more

10-Day Weather Forecast

Advertisements
Track Severe Weather on mobile